createdAt,value
2018-04-28T00:00:49.208Z,92.40
2018-04-28T00:03:25.488Z,92.80
2018-04-28T00:05:53.632Z,94.00
2018-04-28T00:08:29.876Z,92.90
2018-04-28T00:10:57.615Z,96.00
2018-04-28T00:13:32.826Z,92.30
2018-04-28T00:16:02.168Z,96.00
2018-04-28T00:18:29.897Z,97.70
2018-04-28T00:20:58.381Z,92.80
2018-04-28T00:23:27.123Z,97.80
2018-04-28T00:25:59.283Z,92.80
2018-04-28T00:28:43.094Z,97.90
2018-04-28T00:31:17.720Z,93.20
2018-04-28T00:33:51.143Z,94.00
2018-04-28T00:36:21.378Z,94.10
2018-04-28T00:39:05.702Z,94.30
2018-04-28T00:41:36.941Z,94.20
2018-04-28T00:44:12.088Z,93.70
2018-04-28T00:46:39.822Z,97.90
2018-04-28T00:49:17.168Z,94.00
2018-04-28T00:51:48.965Z,94.10
2018-04-28T00:57:17.590Z,99.00
2018-04-28T00:59:46.091Z,93.60
2018-04-28T01:02:13.785Z,99.10
2018-04-28T01:04:47.799Z,94.30
2018-04-28T01:07:37.836Z,99.60
2018-04-28T01:10:07.250Z,98.40
2018-04-28T01:12:40.155Z,99.70
2018-04-28T01:15:21.053Z,95.90
2018-04-28T01:17:52.024Z,94.60
2018-04-28T01:20:30.674Z,99.70
2018-04-28T01:23:24.650Z,99.60
2018-04-28T01:25:53.154Z,94.00
2018-04-28T01:28:27.138Z,94.00
2018-04-28T01:31:04.113Z,94.00
2018-04-28T01:37:03.152Z,94.30
2018-04-28T01:39:48.495Z,94.30
2018-04-28T01:42:17.251Z,97.70
2018-04-28T01:44:56.149Z,94.40
2018-04-28T01:47:24.760Z,94.70
2018-04-28T01:49:55.887Z,94.70
2018-04-28T01:52:24.926Z,96.30
2018-04-28T01:55:04.373Z,96.70
2018-04-28T01:57:47.055Z,97.20
2018-04-28T02:00:27.605Z,99.90
2018-04-28T02:05:49.612Z,99.90
2018-04-28T02:08:18.500Z,95.50
2018-04-28T02:10:52.555Z,95.40
2018-04-28T02:16:32.876Z,97.00
2018-04-28T02:19:06.211Z,94.90
2018-04-28T02:22:03.061Z,94.70
2018-04-28T02:30:58.858Z,95.60
2018-04-28T02:33:26.978Z,95.50
2018-04-28T02:35:58.345Z,94.00
2018-04-28T02:38:27.748Z,93.60
2018-04-28T02:41:03.942Z,97.50
2018-04-28T02:43:48.522Z,96.20
2018-04-28T02:46:33.070Z,93.30
2018-04-28T02:49:07.424Z,93.10
2018-04-28T02:51:53.358Z,93.70
2018-04-28T02:54:27.259Z,98.40
2018-04-28T02:56:58.697Z,98.30
2018-04-28T02:59:32.641Z,97.90
2018-04-28T03:02:12.038Z,92.80
2018-04-28T03:04:41.472Z,97.70
2018-04-28T03:07:14.921Z,92.30
2018-04-28T03:09:43.075Z,92.20
2018-04-28T03:12:22.888Z,92.30
2018-04-28T03:14:55.147Z,91.70
2018-04-28T03:17:30.357Z,96.90
2018-04-28T03:20:02.806Z,93.70
2018-04-28T03:22:30.943Z,91.30
2018-04-28T03:25:05.981Z,96.60
2018-04-28T03:27:47.375Z,96.60
2018-04-28T03:30:15.625Z,91.80
2018-04-28T03:32:51.086Z,96.70
2018-04-28T03:35:20.373Z,91.40
2018-04-28T03:37:53.784Z,91.20
2018-04-28T03:40:23.170Z,91.50
2018-04-28T03:42:58.779Z,90.90
2018-04-28T03:48:26.336Z,95.50
2018-04-28T03:50:57.372Z,90.50
2018-04-28T03:53:27.981Z,95.60
2018-04-28T03:56:02.808Z,90.80
2018-04-28T03:58:42.939Z,92.10
2018-04-28T04:01:27.843Z,95.50
2018-04-28T04:07:26.273Z,90.50
2018-04-28T04:13:14.623Z,90.00
2018-04-28T04:19:03.951Z,93.50
2018-04-28T04:21:47.478Z,95.30
2018-04-28T04:24:26.760Z,89.90
2018-04-28T04:30:31.365Z,91.50
2018-04-28T04:33:10.850Z,95.10
2018-04-28T04:35:54.252Z,92.40
2018-04-28T04:38:35.780Z,95.20
2018-04-28T04:41:16.883Z,90.20
2018-04-28T04:50:28.266Z,90.00
2018-04-28T04:52:59.402Z,95.20
2018-04-28T04:55:42.944Z,95.10
2018-04-28T04:58:26.519Z,90.20
2018-04-28T05:03:57.491Z,93.00
2018-04-28T05:06:30.743Z,95.10
2018-04-28T05:09:19.436Z,90.60
2018-04-28T05:11:54.954Z,94.80
2018-04-28T05:17:50.997Z,88.60
2018-04-28T05:23:41.796Z,93.90
2018-04-28T05:26:21.324Z,93.90
2018-04-28T05:28:59.876Z,93.90
2018-04-28T05:31:49.661Z,90.70
2018-04-28T05:34:29.638Z,87.00
2018-04-28T05:40:26.329Z,86.70
2018-04-28T05:43:08.317Z,93.00
2018-04-28T05:45:40.421Z,92.90
2018-04-28T05:48:26.084Z,92.60
2018-04-28T05:51:02.566Z,84.80
2018-04-28T05:53:42.537Z,83.80
2018-04-28T06:10:26.458Z,82.00
2018-04-28T06:13:08.780Z,81.60
2018-04-28T06:19:02.850Z,83.40
2018-04-28T06:21:30.545Z,89.60
2018-04-28T06:24:00.012Z,80.20
2018-04-28T06:26:28.513Z,79.40
2018-04-28T06:29:01.144Z,78.90
2018-04-28T06:31:28.885Z,85.60
2018-04-28T06:33:58.374Z,80.30
2018-04-28T06:36:26.876Z,80.10
2018-04-28T06:38:54.663Z,81.90
2018-04-28T06:41:22.404Z,86.20
2018-04-28T06:43:52.960Z,77.40
2018-04-28T06:46:20.732Z,85.00
2018-04-28T06:48:53.829Z,83.80
2018-04-28T06:51:22.033Z,74.00
2018-04-28T06:53:49.681Z,82.60
2018-04-28T06:58:48.272Z,74.30
2018-04-28T07:01:16.386Z,76.60
2018-04-28T07:03:44.901Z,74.40
2018-04-28T07:06:13.022Z,74.00
2018-04-28T07:08:40.727Z,79.80
2018-04-28T07:11:09.223Z,73.00
2018-04-28T07:13:38.109Z,82.90
2018-04-28T07:16:06.179Z,74.90
2018-04-28T07:18:33.914Z,83.30
2018-04-28T07:21:02.085Z,72.80
2018-04-28T07:23:30.595Z,74.70
2018-04-28T07:25:59.237Z,73.20
2018-04-28T07:28:27.729Z,72.30
2018-04-28T07:30:56.232Z,72.70
2018-04-28T07:33:24.005Z,81.60
2018-04-28T07:35:53.264Z,71.80
2018-04-28T07:38:25.424Z,73.70
2018-04-28T07:40:53.881Z,73.20
2018-04-28T07:43:22.629Z,80.70
2018-04-28T07:45:51.159Z,69.40
2018-04-28T07:48:19.899Z,79.20
2018-04-28T07:50:47.656Z,75.10
2018-04-28T07:53:15.769Z,71.00
2018-04-28T07:55:43.465Z,78.50
2018-04-28T07:58:11.920Z,69.80
2018-04-28T08:00:40.378Z,68.60
2018-04-28T08:03:09.031Z,69.40
2018-04-28T08:05:37.162Z,70.20
2018-04-28T08:08:06.914Z,75.00
2018-04-28T08:10:34.703Z,74.60
2018-04-28T08:13:05.177Z,69.10
2018-04-28T08:15:32.905Z,74.60
2018-04-28T08:18:02.049Z,73.30
2018-04-28T08:20:30.531Z,64.40
2018-04-28T08:22:59.649Z,64.10
2018-04-28T08:25:27.507Z,72.50
2018-04-28T08:27:55.323Z,72.40
2018-04-28T08:30:23.811Z,63.70
2018-04-28T08:32:51.578Z,73.00
2018-04-28T08:35:19.318Z,69.90
2018-04-28T08:37:50.196Z,62.70
2018-04-28T08:40:19.160Z,62.80
2018-04-28T08:42:52.617Z,72.40
2018-04-28T08:45:20.423Z,71.60
2018-04-28T08:47:49.143Z,69.90
2018-04-28T08:50:17.584Z,60.30
2018-04-28T08:53:00.412Z,61.50
2018-04-28T08:55:29.385Z,62.10
2018-04-28T09:00:30.477Z,68.20
2018-04-28T09:02:58.952Z,58.00
2018-04-28T09:05:26.660Z,66.50
2018-04-28T09:07:56.308Z,58.70
2018-04-28T09:10:23.965Z,67.00
2018-04-28T09:12:53.670Z,66.70
2018-04-28T09:15:21.391Z,65.80
2018-04-28T09:17:49.087Z,61.70
2018-04-28T09:20:16.791Z,63.00
2018-04-28T09:22:45.317Z,56.90
2018-04-28T09:25:14.513Z,55.50
2018-04-28T09:27:42.644Z,56.10
2018-04-28T09:30:11.071Z,56.70
2018-04-28T09:32:44.092Z,57.00
2018-04-28T09:35:13.251Z,57.10
2018-04-28T09:37:41.947Z,64.10
2018-04-28T09:40:10.255Z,60.50
2018-04-28T09:42:41.019Z,55.90
2018-04-28T09:45:09.539Z,58.60
2018-04-28T09:47:39.792Z,55.90
2018-04-28T09:50:07.469Z,62.60
2018-04-28T09:52:37.591Z,55.00
2018-04-28T09:55:06.096Z,55.00
2018-04-28T09:57:34.415Z,55.30
2018-04-28T10:00:15.269Z,55.90
2018-04-28T10:02:43.754Z,57.80
2018-04-28T10:05:11.423Z,63.50
2018-04-28T10:07:39.511Z,57.70
2018-04-28T10:10:07.169Z,66.70
2018-04-28T10:12:34.813Z,66.80
2018-04-28T10:15:02.523Z,66.20
2018-04-28T10:17:31.349Z,59.00
2018-04-28T10:20:01.393Z,61.00
2018-04-28T10:22:29.113Z,64.90
2018-04-28T10:24:56.978Z,66.00
2018-04-28T10:29:54.753Z,59.60
2018-04-28T10:32:24.025Z,57.50
2018-04-28T10:34:53.209Z,58.60
2018-04-28T10:37:20.900Z,64.70
2018-04-28T10:39:49.477Z,57.10
2018-04-28T10:42:17.182Z,65.70
2018-04-28T10:44:45.922Z,64.00
2018-04-28T10:47:14.009Z,59.70
2018-04-28T10:49:43.065Z,59.00
2018-04-28T10:52:10.853Z,67.80
2018-04-28T10:54:42.974Z,67.30
2018-04-28T10:57:11.887Z,61.80
2018-04-28T10:59:43.358Z,66.30
2018-04-28T11:02:11.042Z,66.70
2018-04-28T11:04:39.150Z,58.80
2018-04-28T11:07:06.958Z,65.00
2018-04-28T11:09:35.019Z,58.60
2018-04-28T11:12:03.081Z,58.80
2018-04-28T11:14:31.777Z,62.80
2018-04-28T11:16:59.423Z,62.00
2018-04-28T11:19:27.114Z,69.00
2018-04-28T11:21:55.143Z,59.60
2018-04-28T11:24:23.876Z,65.50
2018-04-28T11:26:52.309Z,57.40
2018-04-28T11:29:19.958Z,64.10
2018-04-28T11:31:48.780Z,55.10
2018-04-28T11:34:17.465Z,63.50
2018-04-28T11:36:45.110Z,63.70
2018-04-28T11:39:13.834Z,62.20
2018-04-28T11:41:42.320Z,55.70
2018-04-28T11:44:10.742Z,57.00
2018-04-28T11:46:38.391Z,63.90
2018-04-28T11:49:07.130Z,65.20
2018-04-28T11:51:34.795Z,65.20
2018-04-28T11:54:03.886Z,58.10
2018-04-28T11:56:33.048Z,57.80
2018-04-28T11:59:13.043Z,65.50
2018-04-28T12:01:40.685Z,64.40
2018-04-28T12:04:11.307Z,56.80
2018-04-28T12:06:39.772Z,56.20
2018-04-28T12:09:08.478Z,63.40
2018-04-28T12:11:36.165Z,60.70
2018-04-28T12:14:04.626Z,55.20
2018-04-28T12:16:32.431Z,60.00
2018-04-28T12:19:05.862Z,53.30
2018-04-28T12:21:33.643Z,59.90
2018-04-28T12:24:02.562Z,53.40
2018-04-28T12:26:30.237Z,61.30
2018-04-28T12:28:58.772Z,56.10
2018-04-28T12:31:26.458Z,60.50
2018-04-28T12:33:55.605Z,56.40
2018-04-28T12:36:23.681Z,56.70
2018-04-28T12:38:51.764Z,55.10
2018-04-28T12:41:19.415Z,59.80
2018-04-28T12:43:47.219Z,59.50
2018-04-28T12:46:14.859Z,59.40
2018-04-28T12:48:43.513Z,60.10
2018-04-28T12:51:11.245Z,58.00
2018-04-28T12:53:40.677Z,53.10
2018-04-28T12:56:08.349Z,58.40
2018-04-28T12:58:37.558Z,50.40
2018-04-28T13:01:05.248Z,57.40
2018-04-28T13:03:32.931Z,58.20
2018-04-28T13:06:01.400Z,53.80
2018-04-28T13:08:29.939Z,51.50
2018-04-28T13:10:59.429Z,51.10
2018-04-28T13:13:31.750Z,51.70
2018-04-28T13:15:59.580Z,58.00
2018-04-28T13:18:29.863Z,51.70
2018-04-28T13:25:57.078Z,59.00
2018-04-28T13:28:28.681Z,59.90
2018-04-28T13:30:57.548Z,54.20
2018-04-28T13:33:31.513Z,62.20
2018-04-28T13:35:59.938Z,55.30
2018-04-28T13:38:32.715Z,54.20
2018-04-28T13:41:00.764Z,54.10
2018-04-28T13:43:28.860Z,53.90
2018-04-28T13:45:56.964Z,52.50
2018-04-28T13:48:26.663Z,57.90
2018-04-28T13:50:54.345Z,58.90
2018-04-28T13:53:24.846Z,53.80
2018-04-28T13:55:52.909Z,55.00
2018-04-28T13:58:20.557Z,60.80
2018-04-28T14:00:48.248Z,56.70
2018-04-28T14:03:25.390Z,54.20
2018-04-28T14:05:53.146Z,60.20
2018-04-28T14:08:22.394Z,55.00
2018-04-28T14:10:50.047Z,59.70
2018-04-28T14:13:19.523Z,53.50
2018-04-28T14:15:47.223Z,60.10
2018-04-28T14:18:18.657Z,55.10
2018-04-28T14:23:16.485Z,58.80
2018-04-28T14:25:45.398Z,51.70
2018-04-28T14:28:14.407Z,54.70
2018-04-28T14:33:11.424Z,53.80
2018-04-28T14:35:39.914Z,46.90
2018-04-28T14:38:07.621Z,53.20
2018-04-28T14:40:36.085Z,46.50
2018-04-28T14:43:03.766Z,53.50
2018-04-28T14:45:32.185Z,48.30
2018-04-28T14:48:01.058Z,49.80
2018-04-28T14:50:28.714Z,57.30
2018-04-28T14:55:27.816Z,54.30
2018-04-28T14:57:55.524Z,59.50
2018-04-28T15:00:24.008Z,55.00
2018-04-28T15:02:51.759Z,61.10
2018-04-28T15:05:20.599Z,54.20
2018-04-28T15:07:49.298Z,58.40
2018-04-28T15:10:17.370Z,55.50
2018-04-28T15:12:46.972Z,55.30
2018-04-28T15:17:43.622Z,62.00
2018-04-28T15:20:11.697Z,55.50
2018-04-28T15:22:39.715Z,55.00
2018-04-28T15:25:08.158Z,53.20
2018-04-28T15:27:37.957Z,54.00
2018-04-28T15:30:05.676Z,58.40
2018-04-28T15:32:33.380Z,59.00
2018-04-28T15:35:01.103Z,59.30
2018-04-28T15:37:30.573Z,54.60
2018-04-28T15:39:58.637Z,55.80
2018-04-28T15:42:38.362Z,54.60
2018-04-28T15:45:06.411Z,55.40
2018-04-28T15:47:34.503Z,55.70
2018-04-28T15:50:02.348Z,61.20
2018-04-28T15:52:29.950Z,62.20
2018-04-28T15:54:57.622Z,61.10
2018-04-28T15:57:26.284Z,57.30
2018-04-28T15:59:54.482Z,50.10
2018-04-28T16:04:51.919Z,49.70
2018-04-28T16:07:20.626Z,50.70
2018-04-28T16:09:48.323Z,54.60
2018-04-28T16:12:18.853Z,50.60
2018-04-28T16:14:47.286Z,52.00
2018-04-28T16:17:15.787Z,53.20
2018-04-28T16:19:44.192Z,54.70
2018-04-28T16:22:15.015Z,56.70
2018-04-28T16:24:43.426Z,56.90
2018-04-28T16:27:17.252Z,63.40
2018-04-28T16:29:46.753Z,57.30
2018-04-28T16:32:15.864Z,57.50
2018-04-28T16:34:43.535Z,61.40
2018-04-28T16:37:12.030Z,56.50
2018-04-28T16:39:40.226Z,58.00
2018-04-28T16:42:09.259Z,57.30
2018-04-28T16:44:38.067Z,57.90
2018-04-28T16:47:10.907Z,58.80
2018-04-28T16:49:38.621Z,62.60
2018-04-28T16:52:07.294Z,62.90
2018-04-28T16:54:34.962Z,63.70
2018-04-28T16:57:03.704Z,62.80
2018-04-28T16:59:31.361Z,63.90
2018-04-28T17:04:28.498Z,57.70
2018-04-28T17:06:57.300Z,66.40
2018-04-28T17:09:25.734Z,60.80
2018-04-28T17:11:55.453Z,68.10
2018-04-28T17:14:23.875Z,59.90
2018-04-28T17:16:54.339Z,61.80
2018-04-28T17:19:22.024Z,70.20
2018-04-28T17:21:52.748Z,69.10
2018-04-28T17:24:21.213Z,62.20
2018-04-28T17:26:51.687Z,62.00
2018-04-28T17:29:19.338Z,70.20
2018-04-28T17:31:47.015Z,69.10
2018-04-28T17:34:15.080Z,61.20
2018-04-28T17:36:43.760Z,69.80
2018-04-28T17:39:11.423Z,70.50
2018-04-28T17:41:39.119Z,70.60
2018-04-28T17:44:07.540Z,62.80
2018-04-28T17:46:35.212Z,71.10
2018-04-28T17:49:02.868Z,71.70
2018-04-28T17:51:31.583Z,68.60
2018-04-28T17:53:59.629Z,64.60
2018-04-28T17:56:27.311Z,72.10
2018-04-28T17:58:55.002Z,72.80
2018-04-28T18:01:22.712Z,72.20
2018-04-28T18:03:50.880Z,66.00
2018-04-28T18:06:18.949Z,64.60
2018-04-28T18:08:46.638Z,72.60
2018-04-28T18:11:15.335Z,73.00
2018-04-28T18:13:43.738Z,66.10
2018-04-28T18:16:15.208Z,65.40
2018-04-28T18:18:42.924Z,73.80
2018-04-28T18:21:14.563Z,67.20
2018-04-28T18:23:42.641Z,67.20
2018-04-28T18:26:14.412Z,68.00
2018-04-28T18:28:42.026Z,72.90
2018-04-28T18:31:10.431Z,68.10
2018-04-28T18:33:38.559Z,70.00
2018-04-28T18:36:06.712Z,70.90
2018-04-28T18:38:35.168Z,72.80
2018-04-28T18:41:02.820Z,78.80
2018-04-28T18:43:30.501Z,80.60
2018-04-28T18:46:04.725Z,75.80
2018-04-28T18:48:33.548Z,75.50
2018-04-28T18:51:05.450Z,74.80
2018-04-28T18:53:33.519Z,76.30
2018-04-28T18:56:01.223Z,85.50
2018-04-28T18:58:29.259Z,78.50
2018-04-28T19:00:59.465Z,80.10
2018-04-28T19:03:27.116Z,88.60
2018-04-28T19:05:56.879Z,89.10
2018-04-28T19:08:25.059Z,83.10
2018-04-28T19:15:52.584Z,85.00
2018-04-28T19:18:21.690Z,85.40
2018-04-28T19:20:50.274Z,86.50
2018-04-28T19:23:19.438Z,86.60
2018-04-28T19:25:48.025Z,86.30
2018-04-28T19:28:15.680Z,91.70
2018-04-28T19:30:44.138Z,87.90
2018-04-28T19:33:12.247Z,87.50
2018-04-28T19:35:41.681Z,88.20
2018-04-28T19:40:40.416Z,90.10
2018-04-28T19:43:08.460Z,90.30
2018-04-28T19:45:38.566Z,90.50
2018-04-28T19:48:06.235Z,92.80
2018-04-28T19:50:36.639Z,90.70
2018-04-28T19:53:04.831Z,90.60
2018-04-28T19:55:33.747Z,92.90
2018-04-28T19:58:01.872Z,90.90
2018-04-28T20:00:33.145Z,93.20
2018-04-28T20:03:02.248Z,89.40
2018-04-28T20:05:31.316Z,93.70
2018-04-28T20:08:00.097Z,90.20
2018-04-28T20:10:29.015Z,89.60
2018-04-28T20:12:57.223Z,88.30
2018-04-28T20:15:26.705Z,88.70
2018-04-28T20:17:54.351Z,93.50
2018-04-28T20:20:23.149Z,89.60
2018-04-28T20:23:04.077Z,90.00
2018-04-28T20:28:03.886Z,93.40
2018-04-28T20:30:31.553Z,93.80
2018-04-28T20:35:29.094Z,90.10
2018-04-28T20:37:56.894Z,91.80
2018-04-28T20:40:24.545Z,93.00
2018-04-28T20:42:52.242Z,93.90
2018-04-28T20:45:20.688Z,89.20
2018-04-28T20:47:49.161Z,88.50
2018-04-28T20:50:18.004Z,85.50
2018-04-28T20:52:48.417Z,86.90
2018-04-28T20:55:16.163Z,89.50
2018-04-28T20:57:44.598Z,84.80
2018-04-28T21:00:12.321Z,91.70
2018-04-28T21:02:41.015Z,92.20
2018-04-28T21:05:09.517Z,86.20
2018-04-28T21:07:41.159Z,92.30
2018-04-28T21:10:09.227Z,85.90
2018-04-28T21:12:38.333Z,88.90
2018-04-28T21:15:06.039Z,92.10
2018-04-28T21:17:35.450Z,88.00
2018-04-28T21:20:03.161Z,92.50
2018-04-28T21:22:33.027Z,88.10
2018-04-28T21:25:01.085Z,88.70
2018-04-28T21:27:29.516Z,89.60
2018-04-28T21:29:57.211Z,93.00
2018-04-28T21:32:27.644Z,90.60
2018-04-28T21:34:56.084Z,90.10
2018-04-28T21:37:23.780Z,94.10
2018-04-28T21:39:52.196Z,90.40
2018-04-28T21:42:20.646Z,90.40
2018-04-28T21:47:18.375Z,94.10
2018-04-28T21:49:46.093Z,93.30
2018-04-28T21:52:14.483Z,91.40
2018-04-28T21:54:42.259Z,93.60
2018-04-28T21:57:10.657Z,90.60
2018-04-28T22:02:08.162Z,90.70
2018-04-28T22:04:35.812Z,94.40
2018-04-28T22:07:03.504Z,94.40
2018-04-28T22:09:31.931Z,90.20
2018-04-28T22:12:00.056Z,90.10
2018-04-28T22:14:28.134Z,90.40
2018-04-28T22:16:56.232Z,92.40
2018-04-28T22:19:24.695Z,90.60
2018-04-28T22:21:55.293Z,90.90
2018-04-28T22:24:22.952Z,94.70
2018-04-28T22:26:50.606Z,94.60
2018-04-28T22:29:18.321Z,95.30
2018-04-28T22:31:47.808Z,91.50
2018-04-28T22:34:17.095Z,91.10
2018-04-28T22:36:45.735Z,93.30
2018-04-28T22:39:13.808Z,91.70
2018-04-28T22:41:42.514Z,96.30
2018-04-28T22:44:10.577Z,92.00
2018-04-28T22:46:39.493Z,94.80
2018-04-28T22:49:07.172Z,96.30
2018-04-28T22:51:35.614Z,92.60
2018-04-28T22:54:04.793Z,92.30
2018-04-28T22:56:35.928Z,96.40
2018-04-28T22:59:04.137Z,93.00
2018-04-28T23:01:33.222Z,95.80
2018-04-28T23:04:02.460Z,93.40
2018-04-28T23:06:31.955Z,93.60
2018-04-28T23:09:00.030Z,94.80
2018-04-28T23:11:28.473Z,93.70
2018-04-28T23:13:58.189Z,97.60
2018-04-28T23:16:25.854Z,97.50
2018-04-28T23:18:54.534Z,97.50
2018-04-28T23:21:22.617Z,93.40
2018-04-28T23:23:51.313Z,97.60
2018-04-28T23:26:18.976Z,97.70
2018-04-28T23:28:48.174Z,94.00
2018-04-28T23:31:16.969Z,93.40
2018-04-28T23:33:47.387Z,93.60
2018-04-28T23:36:15.074Z,96.90
2018-04-28T23:38:44.710Z,97.20
2018-04-28T23:41:13.187Z,93.00
2018-04-28T23:43:42.593Z,92.60
2018-04-28T23:46:10.250Z,96.80
2018-04-28T23:48:38.993Z,96.80
2018-04-28T23:51:07.433Z,92.50
2018-04-28T23:53:37.024Z,92.80
2018-04-28T23:56:05.482Z,92.80
2018-04-28T23:58:33.190Z,97.40
